sensor_id;sensor_type;location;lat;lon;timestamp;P1;durP1;ratioP1;P2;durP2;ratioP2
70818;SDS011;58439;51.046;13.692;2022-12-26T00:02:48;3.97;;;1.90;;
70818;SDS011;58439;51.046;13.692;2022-12-26T00:05:18;6.05;;;1.55;;
70818;SDS011;58439;51.046;13.692;2022-12-26T00:07:45;3.85;;;1.55;;
70818;SDS011;58439;51.046;13.692;2022-12-26T00:10:12;2.30;;;1.38;;
70818;SDS011;58439;51.046;13.692;2022-12-26T00:12:39;2.70;;;1.42;;
70818;SDS011;58439;51.046;13.692;2022-12-26T00:15:06;3.20;;;1.25;;
70818;SDS011;58439;51.046;13.692;2022-12-26T00:17:34;2.17;;;1.05;;
70818;SDS011;58439;51.046;13.692;2022-12-26T00:20:13;3.15;;;1.60;;
70818;SDS011;58439;51.046;13.692;2022-12-26T00:22:42;3.58;;;1.33;;
70818;SDS011;58439;51.046;13.692;2022-12-26T00:25:12;2.78;;;1.17;;
70818;SDS011;58439;51.046;13.692;2022-12-26T00:27:47;1.08;;;0.80;;
70818;SDS011;58439;51.046;13.692;2022-12-26T00:30:22;3.60;;;1.20;;
70818;SDS011;58439;51.046;13.692;2022-12-26T00:37:32;4.10;;;1.83;;
70818;SDS011;58439;51.046;13.692;2022-12-26T00:42:09;4.32;;;1.80;;
70818;SDS011;58439;51.046;13.692;2022-12-26T00:49:56;4.32;;;1.52;;
70818;SDS011;58439;51.046;13.692;2022-12-26T00:52:40;5.22;;;1.90;;
70818;SDS011;58439;51.046;13.692;2022-12-26T00:55:08;5.20;;;2.10;;
70818;SDS011;58439;51.046;13.692;2022-12-26T00:57:36;2.65;;;1.70;;
70818;SDS011;58439;51.046;13.692;2022-12-26T01:05:14;10.93;;;4.75;;
70818;SDS011;58439;51.046;13.692;2022-12-26T01:11:48;12.13;;;5.15;;
70818;SDS011;58439;51.046;13.692;2022-12-26T01:14:16;10.35;;;4.75;;
70818;SDS011;58439;51.046;13.692;2022-12-26T01:16:50;9.93;;;4.90;;
70818;SDS011;58439;51.046;13.692;2022-12-26T01:19:22;12.82;;;4.75;;
70818;SDS011;58439;51.046;13.692;2022-12-26T01:21:57;13.35;;;5.13;;
70818;SDS011;58439;51.046;13.692;2022-12-26T01:24:27;11.88;;;6.15;;
70818;SDS011;58439;51.046;13.692;2022-12-26T01:27:01;15.23;;;5.75;;
70818;SDS011;58439;51.046;13.692;2022-12-26T01:29:39;12.52;;;5.80;;
70818;SDS011;58439;51.046;13.692;2022-12-26T01:32:48;12.75;;;6.30;;
70818;SDS011;58439;51.046;13.692;2022-12-26T01:35:49;12.25;;;5.68;;
70818;SDS011;58439;51.046;13.692;2022-12-26T01:38:40;13.15;;;6.28;;
70818;SDS011;58439;51.046;13.692;2022-12-26T01:41:14;11.95;;;6.18;;
70818;SDS011;58439;51.046;13.692;2022-12-26T01:43:52;12.20;;;5.85;;
70818;SDS011;58439;51.046;13.692;2022-12-26T01:51:49;12.45;;;6.35;;
70818;SDS011;58439;51.046;13.692;2022-12-26T01:54:24;12.75;;;6.38;;
70818;SDS011;58439;51.046;13.692;2022-12-26T02:02:32;13.18;;;5.75;;
70818;SDS011;58439;51.046;13.692;2022-12-26T02:06:42;8.43;;;4.13;;
70818;SDS011;58439;51.046;13.692;2022-12-26T02:09:27;9.43;;;2.92;;
70818;SDS011;58439;51.046;13.692;2022-12-26T02:32:21;14.18;;;5.65;;
70818;SDS011;58439;51.046;13.692;2022-12-26T02:41:32;15.00;;;6.45;;
70818;SDS011;58439;51.046;13.692;2022-12-26T02:44:20;17.00;;;6.80;;
70818;SDS011;58439;51.046;13.692;2022-12-26T02:50:11;7.20;;;2.47;;
70818;SDS011;58439;51.046;13.692;2022-12-26T02:53:32;5.10;;;2.42;;
70818;SDS011;58439;51.046;13.692;2022-12-26T02:56:56;8.15;;;3.33;;
70818;SDS011;58439;51.046;13.692;2022-12-26T02:59:53;7.53;;;3.05;;
70818;SDS011;58439;51.046;13.692;2022-12-26T03:02:54;3.53;;;2.30;;
70818;SDS011;58439;51.046;13.692;2022-12-26T03:09:26;4.97;;;1.98;;
70818;SDS011;58439;51.046;13.692;2022-12-26T03:13:13;10.02;;;5.00;;
70818;SDS011;58439;51.046;13.692;2022-12-26T03:17:17;10.05;;;5.57;;
70818;SDS011;58439;51.046;13.692;2022-12-26T03:24:59;13.38;;;5.18;;
70818;SDS011;58439;51.046;13.692;2022-12-26T03:27:52;3.83;;;2.25;;
70818;SDS011;58439;51.046;13.692;2022-12-26T03:30:20;9.60;;;4.05;;
70818;SDS011;58439;51.046;13.692;2022-12-26T03:33:07;6.38;;;3.42;;
70818;SDS011;58439;51.046;13.692;2022-12-26T03:35:54;5.53;;;2.95;;
70818;SDS011;58439;51.046;13.692;2022-12-26T03:38:33;5.80;;;2.20;;
70818;SDS011;58439;51.046;13.692;2022-12-26T03:41:31;5.13;;;1.92;;
70818;SDS011;58439;51.046;13.692;2022-12-26T03:44:47;3.42;;;1.67;;
70818;SDS011;58439;51.046;13.692;2022-12-26T03:47:46;3.25;;;1.70;;
70818;SDS011;58439;51.046;13.692;2022-12-26T03:50:42;4.03;;;1.60;;
70818;SDS011;58439;51.046;13.692;2022-12-26T03:53:34;4.18;;;1.60;;
70818;SDS011;58439;51.046;13.692;2022-12-26T03:56:51;5.57;;;1.63;;
70818;SDS011;58439;51.046;13.692;2022-12-26T03:59:50;3.78;;;1.30;;
70818;SDS011;58439;51.046;13.692;2022-12-26T04:02:49;4.70;;;1.63;;
70818;SDS011;58439;51.046;13.692;2022-12-26T04:05:41;3.35;;;1.60;;
70818;SDS011;58439;51.046;13.692;2022-12-26T04:11:53;7.07;;;1.70;;
70818;SDS011;58439;51.046;13.692;2022-12-26T04:17:41;3.60;;;1.42;;
70818;SDS011;58439;51.046;13.692;2022-12-26T04:20:43;3.17;;;1.48;;
70818;SDS011;58439;51.046;13.692;2022-12-26T04:24:04;2.70;;;1.07;;
70818;SDS011;58439;51.046;13.692;2022-12-26T04:27:00;2.60;;;1.20;;
70818;SDS011;58439;51.046;13.692;2022-12-26T04:29:49;3.17;;;1.50;;
70818;SDS011;58439;51.046;13.692;2022-12-26T04:32:37;4.25;;;1.08;;
70818;SDS011;58439;51.046;13.692;2022-12-26T04:38:29;4.15;;;1.30;;
70818;SDS011;58439;51.046;13.692;2022-12-26T04:41:23;3.97;;;1.40;;
70818;SDS011;58439;51.046;13.692;2022-12-26T04:44:13;0.93;;;0.70;;
70818;SDS011;58439;51.046;13.692;2022-12-26T04:46:44;3.45;;;1.40;;
70818;SDS011;58439;51.046;13.692;2022-12-26T04:49:15;4.43;;;1.40;;
70818;SDS011;58439;51.046;13.692;2022-12-26T04:52:04;2.60;;;1.30;;
70818;SDS011;58439;51.046;13.692;2022-12-26T04:54:38;2.78;;;1.08;;
70818;SDS011;58439;51.046;13.692;2022-12-26T04:57:07;4.20;;;1.30;;
70818;SDS011;58439;51.046;13.692;2022-12-26T04:59:34;2.20;;;1.10;;
70818;SDS011;58439;51.046;13.692;2022-12-26T05:02:01;3.33;;;1.45;;
70818;SDS011;58439;51.046;13.692;2022-12-26T05:04:47;4.53;;;1.15;;
70818;SDS011;58439;51.046;13.692;2022-12-26T05:07:34;3.28;;;1.35;;
70818;SDS011;58439;51.046;13.692;2022-12-26T05:10:22;3.25;;;1.27;;
70818;SDS011;58439;51.046;13.692;2022-12-26T05:12:53;2.70;;;1.35;;
70818;SDS011;58439;51.046;13.692;2022-12-26T05:15:21;3.13;;;1.10;;
70818;SDS011;58439;51.046;13.692;2022-12-26T05:17:49;3.78;;;1.20;;
70818;SDS011;58439;51.046;13.692;2022-12-26T05:20:34;3.45;;;1.17;;
70818;SDS011;58439;51.046;13.692;2022-12-26T05:23:21;2.45;;;1.10;;
70818;SDS011;58439;51.046;13.692;2022-12-26T05:26:14;5.18;;;1.35;;
70818;SDS011;58439;51.046;13.692;2022-12-26T05:29:04;2.83;;;1.17;;
70818;SDS011;58439;51.046;13.692;2022-12-26T05:31:31;3.95;;;1.65;;
70818;SDS011;58439;51.046;13.692;2022-12-26T05:34:03;3.28;;;1.60;;
70818;SDS011;58439;51.046;13.692;2022-12-26T05:36:36;4.40;;;1.60;;
70818;SDS011;58439;51.046;13.692;2022-12-26T05:39:12;2.95;;;1.48;;
70818;SDS011;58439;51.046;13.692;2022-12-26T05:41:40;3.30;;;1.55;;
70818;SDS011;58439;51.046;13.692;2022-12-26T05:44:08;4.43;;;1.10;;
70818;SDS011;58439;51.046;13.692;2022-12-26T05:46:36;6.00;;;1.23;;
70818;SDS011;58439;51.046;13.692;2022-12-26T05:49:05;3.90;;;1.20;;
70818;SDS011;58439;51.046;13.692;2022-12-26T05:51:32;6.72;;;1.35;;
70818;SDS011;58439;51.046;13.692;2022-12-26T05:54:00;5.80;;;1.75;;
70818;SDS011;58439;51.046;13.692;2022-12-26T05:56:28;2.47;;;1.38;;
70818;SDS011;58439;51.046;13.692;2022-12-26T05:58:59;5.70;;;1.70;;
70818;SDS011;58439;51.046;13.692;2022-12-26T06:01:28;3.35;;;1.50;;
70818;SDS011;58439;51.046;13.692;2022-12-26T06:03:56;3.67;;;1.50;;
70818;SDS011;58439;51.046;13.692;2022-12-26T06:06:26;4.10;;;2.20;;
70818;SDS011;58439;51.046;13.692;2022-12-26T06:08:54;3.80;;;1.65;;
70818;SDS011;58439;51.046;13.692;2022-12-26T06:11:23;4.47;;;1.67;;
70818;SDS011;58439;51.046;13.692;2022-12-26T06:13:52;4.93;;;2.10;;
70818;SDS011;58439;51.046;13.692;2022-12-26T06:16:20;4.57;;;1.80;;
70818;SDS011;58439;51.046;13.692;2022-12-26T06:18:47;3.30;;;1.77;;
70818;SDS011;58439;51.046;13.692;2022-12-26T06:21:16;3.20;;;1.58;;
70818;SDS011;58439;51.046;13.692;2022-12-26T06:23:45;5.20;;;1.70;;
70818;SDS011;58439;51.046;13.692;2022-12-26T06:26:14;4.05;;;1.55;;
70818;SDS011;58439;51.046;13.692;2022-12-26T06:28:42;4.15;;;2.00;;
70818;SDS011;58439;51.046;13.692;2022-12-26T06:31:14;7.93;;;1.95;;
70818;SDS011;58439;51.046;13.692;2022-12-26T06:33:47;3.35;;;1.55;;
70818;SDS011;58439;51.046;13.692;2022-12-26T06:36:22;3.75;;;1.67;;
70818;SDS011;58439;51.046;13.692;2022-12-26T06:38:50;3.10;;;1.75;;
70818;SDS011;58439;51.046;13.692;2022-12-26T06:41:18;4.07;;;1.75;;
70818;SDS011;58439;51.046;13.692;2022-12-26T06:43:48;4.20;;;1.55;;
70818;SDS011;58439;51.046;13.692;2022-12-26T06:46:16;2.72;;;1.45;;
70818;SDS011;58439;51.046;13.692;2022-12-26T06:48:47;3.13;;;1.50;;
70818;SDS011;58439;51.046;13.692;2022-12-26T06:51:15;3.17;;;1.40;;
70818;SDS011;58439;51.046;13.692;2022-12-26T06:53:46;5.07;;;1.90;;
70818;SDS011;58439;51.046;13.692;2022-12-26T06:56:19;2.72;;;1.50;;
70818;SDS011;58439;51.046;13.692;2022-12-26T06:58:56;2.80;;;1.40;;
70818;SDS011;58439;51.046;13.692;2022-12-26T07:01:26;2.47;;;1.33;;
70818;SDS011;58439;51.046;13.692;2022-12-26T07:03:57;3.90;;;1.33;;
70818;SDS011;58439;51.046;13.692;2022-12-26T07:06:29;3.35;;;1.73;;
70818;SDS011;58439;51.046;13.692;2022-12-26T07:09:09;5.00;;;1.60;;
70818;SDS011;58439;51.046;13.692;2022-12-26T07:11:41;5.35;;;1.38;;
70818;SDS011;58439;51.046;13.692;2022-12-26T07:14:15;2.83;;;1.58;;
70818;SDS011;58439;51.046;13.692;2022-12-26T07:16:43;4.35;;;1.65;;
70818;SDS011;58439;51.046;13.692;2022-12-26T07:19:11;4.28;;;1.73;;
70818;SDS011;58439;51.046;13.692;2022-12-26T07:21:41;2.33;;;1.20;;
70818;SDS011;58439;51.046;13.692;2022-12-26T07:24:12;3.50;;;1.25;;
70818;SDS011;58439;51.046;13.692;2022-12-26T07:26:47;2.95;;;1.70;;
70818;SDS011;58439;51.046;13.692;2022-12-26T07:29:15;5.60;;;1.80;;
70818;SDS011;58439;51.046;13.692;2022-12-26T07:31:42;3.13;;;1.30;;
70818;SDS011;58439;51.046;13.692;2022-12-26T07:34:10;4.78;;;2.05;;
70818;SDS011;58439;51.046;13.692;2022-12-26T07:36:37;5.97;;;2.05;;
70818;SDS011;58439;51.046;13.692;2022-12-26T07:39:05;6.55;;;1.75;;
70818;SDS011;58439;51.046;13.692;2022-12-26T07:41:33;3.03;;;1.48;;
70818;SDS011;58439;51.046;13.692;2022-12-26T07:44:18;2.97;;;1.73;;
70818;SDS011;58439;51.046;13.692;2022-12-26T07:46:45;3.75;;;1.52;;
70818;SDS011;58439;51.046;13.692;2022-12-26T07:49:12;2.40;;;1.30;;
70818;SDS011;58439;51.046;13.692;2022-12-26T07:51:40;4.18;;;1.52;;
70818;SDS011;58439;51.046;13.692;2022-12-26T07:54:08;4.95;;;1.88;;
70818;SDS011;58439;51.046;13.692;2022-12-26T07:56:37;4.45;;;2.05;;
70818;SDS011;58439;51.046;13.692;2022-12-26T07:59:10;4.00;;;1.77;;
70818;SDS011;58439;51.046;13.692;2022-12-26T08:01:44;5.95;;;1.88;;
70818;SDS011;58439;51.046;13.692;2022-12-26T08:04:11;3.63;;;1.67;;
70818;SDS011;58439;51.046;13.692;2022-12-26T08:06:39;3.08;;;1.73;;
70818;SDS011;58439;51.046;13.692;2022-12-26T08:09:06;4.53;;;1.60;;
70818;SDS011;58439;51.046;13.692;2022-12-26T08:11:38;3.40;;;1.58;;
70818;SDS011;58439;51.046;13.692;2022-12-26T08:14:05;1.45;;;1.00;;
70818;SDS011;58439;51.046;13.692;2022-12-26T08:16:32;2.90;;;1.52;;
70818;SDS011;58439;51.046;13.692;2022-12-26T08:19:00;2.97;;;1.55;;
70818;SDS011;58439;51.046;13.692;2022-12-26T08:21:29;4.20;;;1.60;;
70818;SDS011;58439;51.046;13.692;2022-12-26T08:23:56;1.83;;;1.00;;
70818;SDS011;58439;51.046;13.692;2022-12-26T08:26:24;4.22;;;1.33;;
70818;SDS011;58439;51.046;13.692;2022-12-26T08:28:51;4.32;;;1.58;;
70818;SDS011;58439;51.046;13.692;2022-12-26T08:31:21;5.47;;;1.65;;
70818;SDS011;58439;51.046;13.692;2022-12-26T08:33:55;5.25;;;1.42;;
70818;SDS011;58439;51.046;13.692;2022-12-26T08:36:23;3.38;;;1.40;;
70818;SDS011;58439;51.046;13.692;2022-12-26T08:38:50;3.78;;;1.70;;
70818;SDS011;58439;51.046;13.692;2022-12-26T08:41:18;2.47;;;1.35;;
70818;SDS011;58439;51.046;13.692;2022-12-26T08:43:49;5.07;;;1.63;;
70818;SDS011;58439;51.046;13.692;2022-12-26T08:46:37;3.88;;;1.42;;
70818;SDS011;58439;51.046;13.692;2022-12-26T08:49:04;5.45;;;1.58;;
70818;SDS011;58439;51.046;13.692;2022-12-26T08:51:31;2.40;;;1.40;;
70818;SDS011;58439;51.046;13.692;2022-12-26T08:53:58;4.15;;;1.50;;
70818;SDS011;58439;51.046;13.692;2022-12-26T08:56:26;3.72;;;1.58;;
70818;SDS011;58439;51.046;13.692;2022-12-26T08:58:54;3.53;;;1.80;;
70818;SDS011;58439;51.046;13.692;2022-12-26T09:01:22;2.50;;;1.17;;
70818;SDS011;58439;51.046;13.692;2022-12-26T09:03:56;4.43;;;1.60;;
70818;SDS011;58439;51.046;13.692;2022-12-26T09:06:27;9.70;;;1.92;;
70818;SDS011;58439;51.046;13.692;2022-12-26T09:09:00;5.55;;;1.38;;
70818;SDS011;58439;51.046;13.692;2022-12-26T09:11:27;6.32;;;1.70;;
70818;SDS011;58439;51.046;13.692;2022-12-26T09:13:55;2.85;;;1.70;;
70818;SDS011;58439;51.046;13.692;2022-12-26T09:16:26;3.78;;;1.50;;
70818;SDS011;58439;51.046;13.692;2022-12-26T09:19:04;5.45;;;1.70;;
70818;SDS011;58439;51.046;13.692;2022-12-26T09:21:32;2.50;;;1.30;;
70818;SDS011;58439;51.046;13.692;2022-12-26T09:24:00;6.93;;;1.70;;
70818;SDS011;58439;51.046;13.692;2022-12-26T09:26:30;2.08;;;1.40;;
70818;SDS011;58439;51.046;13.692;2022-12-26T09:28:58;5.55;;;1.80;;
70818;SDS011;58439;51.046;13.692;2022-12-26T09:31:26;4.90;;;1.38;;
70818;SDS011;58439;51.046;13.692;2022-12-26T09:33:56;3.13;;;1.75;;
70818;SDS011;58439;51.046;13.692;2022-12-26T09:36:25;8.18;;;1.85;;
70818;SDS011;58439;51.046;13.692;2022-12-26T09:38:56;3.30;;;1.40;;
70818;SDS011;58439;51.046;13.692;2022-12-26T09:41:28;2.70;;;1.33;;
70818;SDS011;58439;51.046;13.692;2022-12-26T09:44:28;3.17;;;1.52;;
70818;SDS011;58439;51.046;13.692;2022-12-26T09:50:25;3.45;;;1.40;;
70818;SDS011;58439;51.046;13.692;2022-12-26T09:53:04;5.47;;;1.60;;
70818;SDS011;58439;51.046;13.692;2022-12-26T09:55:45;4.20;;;1.40;;
70818;SDS011;58439;51.046;13.692;2022-12-26T10:03:41;2.42;;;1.35;;
70818;SDS011;58439;51.046;13.692;2022-12-26T10:06:13;5.45;;;1.27;;
70818;SDS011;58439;51.046;13.692;2022-12-26T10:08:55;2.92;;;1.50;;
70818;SDS011;58439;51.046;13.692;2022-12-26T10:11:38;5.80;;;1.30;;
70818;SDS011;58439;51.046;13.692;2022-12-26T10:14:39;3.47;;;1.55;;
70818;SDS011;58439;51.046;13.692;2022-12-26T10:23:02;4.28;;;1.75;;
70818;SDS011;58439;51.046;13.692;2022-12-26T10:25:52;3.65;;;1.63;;
70818;SDS011;58439;51.046;13.692;2022-12-26T10:28:57;4.18;;;1.17;;
70818;SDS011;58439;51.046;13.692;2022-12-26T10:31:42;1.92;;;1.17;;
70818;SDS011;58439;51.046;13.692;2022-12-26T10:34:30;8.32;;;1.60;;
70818;SDS011;58439;51.046;13.692;2022-12-26T10:42:43;7.45;;;1.58;;
70818;SDS011;58439;51.046;13.692;2022-12-26T10:48:13;4.40;;;1.45;;
70818;SDS011;58439;51.046;13.692;2022-12-26T10:50:46;3.08;;;1.15;;
70818;SDS011;58439;51.046;13.692;2022-12-26T10:55:43;3.83;;;1.50;;
70818;SDS011;58439;51.046;13.692;2022-12-26T11:00:53;5.80;;;1.98;;
70818;SDS011;58439;51.046;13.692;2022-12-26T11:03:20;5.80;;;1.55;;
70818;SDS011;58439;51.046;13.692;2022-12-26T11:05:49;5.38;;;1.85;;
70818;SDS011;58439;51.046;13.692;2022-12-26T11:08:37;2.65;;;1.35;;
70818;SDS011;58439;51.046;13.692;2022-12-26T11:11:19;2.90;;;1.50;;
70818;SDS011;58439;51.046;13.692;2022-12-26T11:13:53;7.18;;;1.50;;
70818;SDS011;58439;51.046;13.692;2022-12-26T11:16:29;5.05;;;1.75;;
70818;SDS011;58439;51.046;13.692;2022-12-26T11:19:03;2.50;;;1.40;;
70818;SDS011;58439;51.046;13.692;2022-12-26T11:21:31;2.92;;;1.23;;
70818;SDS011;58439;51.046;13.692;2022-12-26T11:26:36;2.13;;;1.20;;
70818;SDS011;58439;51.046;13.692;2022-12-26T11:29:11;2.15;;;1.58;;
70818;SDS011;58439;51.046;13.692;2022-12-26T11:31:58;2.72;;;1.58;;
70818;SDS011;58439;51.046;13.692;2022-12-26T11:34:34;5.72;;;1.88;;
70818;SDS011;58439;51.046;13.692;2022-12-26T11:37:30;4.57;;;1.80;;
70818;SDS011;58439;51.046;13.692;2022-12-26T11:40:15;2.75;;;1.33;;
70818;SDS011;58439;51.046;13.692;2022-12-26T11:42:54;3.00;;;1.20;;
70818;SDS011;58439;51.046;13.692;2022-12-26T11:45:26;4.35;;;1.38;;
70818;SDS011;58439;51.046;13.692;2022-12-26T11:48:06;2.88;;;1.63;;
70818;SDS011;58439;51.046;13.692;2022-12-26T11:50:48;2.90;;;1.30;;
70818;SDS011;58439;51.046;13.692;2022-12-26T11:53:17;2.30;;;1.23;;
70818;SDS011;58439;51.046;13.692;2022-12-26T11:55:58;2.40;;;1.20;;
70818;SDS011;58439;51.046;13.692;2022-12-26T11:58:28;3.92;;;1.40;;
70818;SDS011;58439;51.046;13.692;2022-12-26T12:03:41;2.20;;;1.33;;
70818;SDS011;58439;51.046;13.692;2022-12-26T12:09:56;3.65;;;1.10;;
70818;SDS011;58439;51.046;13.692;2022-12-26T12:15:27;2.55;;;1.33;;
70818;SDS011;58439;51.046;13.692;2022-12-26T12:18:38;3.10;;;1.25;;
70818;SDS011;58439;51.046;13.692;2022-12-26T12:21:23;2.75;;;1.05;;
70818;SDS011;58439;51.046;13.692;2022-12-26T12:27:18;2.25;;;1.00;;
70818;SDS011;58439;51.046;13.692;2022-12-26T12:30:30;3.15;;;1.52;;
70818;SDS011;58439;51.046;13.692;2022-12-26T12:33:42;4.90;;;1.33;;
70818;SDS011;58439;51.046;13.692;2022-12-26T12:39:38;3.38;;;1.35;;
70818;SDS011;58439;51.046;13.692;2022-12-26T12:45:20;2.78;;;1.27;;
70818;SDS011;58439;51.046;13.692;2022-12-26T12:50:49;1.75;;;1.02;;
70818;SDS011;58439;51.046;13.692;2022-12-26T12:59:42;2.25;;;1.13;;
70818;SDS011;58439;51.046;13.692;2022-12-26T13:10:52;2.88;;;0.60;;
70818;SDS011;58439;51.046;13.692;2022-12-26T13:16:29;0.73;;;0.50;;
70818;SDS011;58439;51.046;13.692;2022-12-26T13:19:29;2.20;;;0.80;;
70818;SDS011;58439;51.046;13.692;2022-12-26T13:22:10;0.20;;;0.20;;
70818;SDS011;58439;51.046;13.692;2022-12-26T13:24:45;2.92;;;0.60;;
70818;SDS011;58439;51.046;13.692;2022-12-26T13:27:25;0.73;;;0.70;;
70818;SDS011;58439;51.046;13.692;2022-12-26T13:30:05;0.88;;;0.50;;
70818;SDS011;58439;51.046;13.692;2022-12-26T13:32:40;3.42;;;0.70;;
70818;SDS011;58439;51.046;13.692;2022-12-26T13:38:24;3.53;;;0.80;;
70818;SDS011;58439;51.046;13.692;2022-12-26T13:41:30;1.75;;;0.90;;
70818;SDS011;58439;51.046;13.692;2022-12-26T14:08:02;1.42;;;0.50;;
70818;SDS011;58439;51.046;13.692;2022-12-26T14:10:47;3.58;;;0.93;;
70818;SDS011;58439;51.046;13.692;2022-12-26T14:17:20;1.20;;;0.82;;
70818;SDS011;58439;51.046;13.692;2022-12-26T14:20:28;2.08;;;0.95;;
70818;SDS011;58439;51.046;13.692;2022-12-26T14:29:28;2.20;;;1.20;;
70818;SDS011;58439;51.046;13.692;2022-12-26T14:37:58;1.45;;;0.77;;
70818;SDS011;58439;51.046;13.692;2022-12-26T14:44:55;3.08;;;0.63;;
70818;SDS011;58439;51.046;13.692;2022-12-26T14:47:41;2.55;;;0.80;;
70818;SDS011;58439;51.046;13.692;2022-12-26T14:54:08;1.85;;;0.70;;
70818;SDS011;58439;51.046;13.692;2022-12-26T15:00:12;0.60;;;0.50;;
70818;SDS011;58439;51.046;13.692;2022-12-26T15:05:27;1.08;;;0.60;;
70818;SDS011;58439;51.046;13.692;2022-12-26T15:12:00;2.67;;;0.80;;
70818;SDS011;58439;51.046;13.692;2022-12-26T15:14:19;0.38;;;0.38;;
70818;SDS011;58439;51.046;13.692;2022-12-26T15:23:34;0.98;;;0.70;;
70818;SDS011;58439;51.046;13.692;2022-12-26T15:27:00;1.85;;;0.90;;
70818;SDS011;58439;51.046;13.692;2022-12-26T15:29:59;3.53;;;1.00;;
70818;SDS011;58439;51.046;13.692;2022-12-26T15:32:50;2.97;;;1.05;;
70818;SDS011;58439;51.046;13.692;2022-12-26T15:36:19;1.83;;;1.02;;
70818;SDS011;58439;51.046;13.692;2022-12-26T15:39:04;2.80;;;0.90;;
70818;SDS011;58439;51.046;13.692;2022-12-26T15:41:49;2.17;;;1.05;;
70818;SDS011;58439;51.046;13.692;2022-12-26T15:57:30;5.88;;;1.67;;
70818;SDS011;58439;51.046;13.692;2022-12-26T16:00:21;5.05;;;1.75;;
70818;SDS011;58439;51.046;13.692;2022-12-26T16:03:15;4.67;;;1.60;;
70818;SDS011;58439;51.046;13.692;2022-12-26T16:06:13;2.70;;;1.50;;
70818;SDS011;58439;51.046;13.692;2022-12-26T16:09:19;5.07;;;2.03;;
70818;SDS011;58439;51.046;13.692;2022-12-26T16:12:25;5.07;;;2.13;;
70818;SDS011;58439;51.046;13.692;2022-12-26T16:17:37;8.70;;;2.40;;
70818;SDS011;58439;51.046;13.692;2022-12-26T16:23:23;4.15;;;2.33;;
70818;SDS011;58439;51.046;13.692;2022-12-26T16:25:55;2.88;;;1.90;;
70818;SDS011;58439;51.046;13.692;2022-12-26T16:28:38;3.53;;;1.95;;
70818;SDS011;58439;51.046;13.692;2022-12-26T16:31:15;4.95;;;1.92;;
70818;SDS011;58439;51.046;13.692;2022-12-26T16:33:48;3.50;;;2.10;;
70818;SDS011;58439;51.046;13.692;2022-12-26T16:36:20;3.67;;;2.10;;
70818;SDS011;58439;51.046;13.692;2022-12-26T16:38:51;3.00;;;1.77;;
70818;SDS011;58439;51.046;13.692;2022-12-26T16:41:23;5.55;;;2.40;;
70818;SDS011;58439;51.046;13.692;2022-12-26T16:43:54;6.90;;;2.33;;
70818;SDS011;58439;51.046;13.692;2022-12-26T16:46:43;4.30;;;2.17;;
70818;SDS011;58439;51.046;13.692;2022-12-26T16:49:11;3.20;;;2.00;;
70818;SDS011;58439;51.046;13.692;2022-12-26T16:51:39;8.52;;;2.40;;
70818;SDS011;58439;51.046;13.692;2022-12-26T16:54:56;6.20;;;2.83;;
70818;SDS011;58439;51.046;13.692;2022-12-26T16:57:39;5.55;;;2.47;;
70818;SDS011;58439;51.046;13.692;2022-12-26T17:00:02;5.35;;;2.47;;
70818;SDS011;58439;51.046;13.692;2022-12-26T17:02:31;7.38;;;3.20;;
70818;SDS011;58439;51.046;13.692;2022-12-26T17:05:04;7.60;;;2.92;;
70818;SDS011;58439;51.046;13.692;2022-12-26T17:07:44;5.10;;;2.80;;
70818;SDS011;58439;51.046;13.692;2022-12-26T17:10:17;6.07;;;2.92;;
70818;SDS011;58439;51.046;13.692;2022-12-26T17:12:49;5.45;;;2.97;;
70818;SDS011;58439;51.046;13.692;2022-12-26T17:15:22;5.93;;;3.00;;
70818;SDS011;58439;51.046;13.692;2022-12-26T17:17:53;6.78;;;2.67;;
70818;SDS011;58439;51.046;13.692;2022-12-26T17:22:48;4.80;;;2.28;;
70818;SDS011;58439;51.046;13.692;2022-12-26T17:30:40;2.60;;;1.65;;
70818;SDS011;58439;51.046;13.692;2022-12-26T17:33:18;3.40;;;1.77;;
70818;SDS011;58439;51.046;13.692;2022-12-26T17:36:03;4.38;;;1.90;;
70818;SDS011;58439;51.046;13.692;2022-12-26T17:38:56;3.17;;;1.73;;
70818;SDS011;58439;51.046;13.692;2022-12-26T17:41:53;4.70;;;2.00;;
70818;SDS011;58439;51.046;13.692;2022-12-26T17:44:33;3.22;;;1.75;;
70818;SDS011;58439;51.046;13.692;2022-12-26T17:47:14;7.38;;;2.10;;
70818;SDS011;58439;51.046;13.692;2022-12-26T17:49:50;2.55;;;1.60;;
70818;SDS011;58439;51.046;13.692;2022-12-26T17:52:24;5.63;;;1.67;;
70818;SDS011;58439;51.046;13.692;2022-12-26T17:54:57;2.08;;;1.27;;
70818;SDS011;58439;51.046;13.692;2022-12-26T17:57:26;2.20;;;1.50;;
70818;SDS011;58439;51.046;13.692;2022-12-26T17:59:55;5.50;;;1.73;;
70818;SDS011;58439;51.046;13.692;2022-12-26T18:02:22;3.08;;;1.20;;
70818;SDS011;58439;51.046;13.692;2022-12-26T18:04:50;3.47;;;1.33;;
70818;SDS011;58439;51.046;13.692;2022-12-26T18:07:18;2.03;;;1.20;;
70818;SDS011;58439;51.046;13.692;2022-12-26T18:09:58;3.25;;;1.40;;
70818;SDS011;58439;51.046;13.692;2022-12-26T18:12:26;2.47;;;1.35;;
70818;SDS011;58439;51.046;13.692;2022-12-26T18:14:54;1.30;;;0.73;;
70818;SDS011;58439;51.046;13.692;2022-12-26T18:17:28;2.58;;;1.48;;
70818;SDS011;58439;51.046;13.692;2022-12-26T18:19:58;2.42;;;1.35;;
70818;SDS011;58439;51.046;13.692;2022-12-26T18:22:26;2.97;;;1.55;;
70818;SDS011;58439;51.046;13.692;2022-12-26T18:24:53;2.75;;;1.23;;
70818;SDS011;58439;51.046;13.692;2022-12-26T18:27:25;3.83;;;1.50;;
70818;SDS011;58439;51.046;13.692;2022-12-26T18:29:56;3.72;;;1.35;;
70818;SDS011;58439;51.046;13.692;2022-12-26T18:32:26;3.00;;;1.25;;
70818;SDS011;58439;51.046;13.692;2022-12-26T18:34:56;5.43;;;1.83;;
70818;SDS011;58439;51.046;13.692;2022-12-26T18:37:25;4.78;;;1.48;;
70818;SDS011;58439;51.046;13.692;2022-12-26T18:39:55;2.17;;;0.90;;
70818;SDS011;58439;51.046;13.692;2022-12-26T18:42:22;2.13;;;1.08;;
70818;SDS011;58439;51.046;13.692;2022-12-26T18:44:50;3.33;;;1.08;;
70818;SDS011;58439;51.046;13.692;2022-12-26T18:47:18;1.88;;;1.00;;
70818;SDS011;58439;51.046;13.692;2022-12-26T18:49:46;3.33;;;0.95;;
70818;SDS011;58439;51.046;13.692;2022-12-26T18:52:14;1.83;;;0.80;;
70818;SDS011;58439;51.046;13.692;2022-12-26T18:54:43;1.42;;;0.70;;
70818;SDS011;58439;51.046;13.692;2022-12-26T18:57:14;1.60;;;0.68;;
70818;SDS011;58439;51.046;13.692;2022-12-26T18:59:45;1.23;;;0.73;;
70818;SDS011;58439;51.046;13.692;2022-12-26T19:02:14;1.27;;;0.60;;
70818;SDS011;58439;51.046;13.692;2022-12-26T19:04:44;1.65;;;0.90;;
70818;SDS011;58439;51.046;13.692;2022-12-26T19:07:17;1.08;;;0.50;;
70818;SDS011;58439;51.046;13.692;2022-12-26T19:09:49;0.40;;;0.40;;
70818;SDS011;58439;51.046;13.692;2022-12-26T19:14:49;1.55;;;0.77;;
70818;SDS011;58439;51.046;13.692;2022-12-26T19:17:17;0.68;;;0.35;;
70818;SDS011;58439;51.046;13.692;2022-12-26T19:19:44;1.50;;;0.73;;
70818;SDS011;58439;51.046;13.692;2022-12-26T19:22:13;0.88;;;0.70;;
70818;SDS011;58439;51.046;13.692;2022-12-26T19:24:40;2.33;;;0.90;;
70818;SDS011;58439;51.046;13.692;2022-12-26T19:27:07;1.52;;;0.70;;
70818;SDS011;58439;51.046;13.692;2022-12-26T19:29:34;2.13;;;0.80;;
70818;SDS011;58439;51.046;13.692;2022-12-26T19:32:01;0.88;;;0.70;;
70818;SDS011;58439;51.046;13.692;2022-12-26T19:34:28;1.30;;;0.77;;
70818;SDS011;58439;51.046;13.692;2022-12-26T19:36:56;1.05;;;0.60;;
70818;SDS011;58439;51.046;13.692;2022-12-26T19:39:23;2.45;;;0.93;;
70818;SDS011;58439;51.046;13.692;2022-12-26T19:41:50;0.98;;;0.70;;
70818;SDS011;58439;51.046;13.692;2022-12-26T19:44:17;1.13;;;0.70;;